Time;durP1;ratioP1;P1;durP2;ratioP2;P2;SDS_P1;SDS_P2;PMS_P1;PMS_P2;Temp;Humidity;BMP_temperature;BMP_pressure;BME280_temperature;BME280_humidity;BME280_pressure;Samples;Min_cycle;Max_cycle;Signal;HPM_P1;HPM_P2
2022/09/02 00:00:43;;;;;;;5.87;1.43;;;;;;;10.39;79.31;100553.53;4193252;28;21172;-65
2022/09/02 00:03:10;;;;;;;2.63;1.63;;;;;;;10.46;78.79;100552.00;4209182;28;20322;-66
2022/09/02 00:05:37;;;;;;;4.40;1.37;;;;;;;10.46;78.55;100549.34;4187152;28;21870;-65
2022/09/02 00:08:04;;;;;;;3.03;1.33;;;;;;;10.41;79.90;100551.59;4217365;28;20396;-66
2022/09/02 00:10:34;;;;;;;3.50;1.40;;;;;;;10.42;79.56;100547.09;4213953;28;20240;-66
2022/09/02 00:13:01;;;;;;;4.37;1.40;;;;;;;10.36;79.38;100540.53;4205175;28;20569;-66
2022/09/02 00:15:27;;;;;;;5.43;1.40;;;;;;;10.32;79.29;100544.44;4214074;28;20295;-64
2022/09/02 00:17:54;;;;;;;3.23;1.50;;;;;;;10.31;79.33;100537.47;4214918;28;20232;-66
2022/09/02 00:20:24;;;;;;;4.10;1.20;;;;;;;10.28;79.12;100548.38;4211983;28;21732;-66
2022/09/02 00:22:51;;;;;;;4.13;1.40;;;;;;;10.32;79.10;100547.09;4207268;28;20269;-66
2022/09/02 00:25:17;;;;;;;2.33;1.37;;;;;;;10.32;78.50;100549.78;4222580;28;20232;-66
2022/09/02 00:27:44;;;;;;;6.43;1.60;;;;;;;10.42;78.24;100552.41;4210664;28;22784;-64
2022/09/02 00:30:12;;;;;;;2.93;1.60;;;;;;;10.34;78.81;100546.00;4216913;28;22991;-67
2022/09/02 00:32:38;;;;;;;6.20;1.67;;;;;;;10.34;79.13;100546.00;4210226;28;20232;-65
2022/09/02 00:35:06;;;;;;;4.70;1.83;;;;;;;10.39;77.98;100552.72;4206795;28;21629;-65
2022/09/02 00:37:32;;;;;;;4.63;1.83;;;;;;;10.51;77.24;100551.56;4206556;28;20311;-65
2022/09/02 00:40:00;;;;;;;3.53;1.70;;;;;;;10.53;77.58;100546.94;4211696;28;20350;-67
2022/09/02 00:42:27;;;;;;;4.60;1.60;;;;;;;10.42;78.19;100552.41;4207736;28;22669;-65
2022/09/02 00:44:53;;;;;;;3.00;1.30;;;;;;;10.37;78.67;100550.19;4211169;28;20288;-66
2022/09/02 00:47:21;;;;;;;4.07;1.37;;;;;;;10.32;78.20;100553.28;4214539;28;22914;-65
2022/09/02 00:49:50;;;;;;;3.73;1.23;;;;;;;10.30;78.09;100551.72;4207677;28;20318;-66
2022/09/02 00:52:29;;;;;;;2.93;1.43;;;;;;;10.20;79.21;100543.72;4203022;28;21029;-66
2022/09/02 00:55:09;;;;;;;3.63;1.40;;;;;;;10.11;79.43;100553.41;4211718;28;20264;-66
2022/09/02 00:57:45;;;;;;;2.43;1.30;;;;;;;10.02;79.76;100551.56;4212439;28;20318;-68
2022/09/02 01:00:21;;;;;;;3.10;1.30;;;;;;;9.97;80.40;100559.09;4213552;28;20241;-65
2022/09/02 01:02:50;;;;;;;5.30;1.40;;;;;;;10.04;80.30;100554.91;4206143;28;22388;-66
2022/09/02 01:05:19;;;;;;;2.87;1.30;;;;;;;10.04;80.43;100548.75;4206440;28;20236;-66
2022/09/02 01:07:46;;;;;;;5.53;1.40;;;;;;;10.07;79.99;100553.81;4212549;28;20239;-65
2022/09/02 01:10:16;;;;;;;4.60;1.50;;;;;;;10.00;80.38;100548.19;4249380;28;20627;-65
2022/09/02 01:12:43;;;;;;;7.60;1.57;;;;;;;10.10;80.10;100559.69;4203723;28;20302;-65
2022/09/02 01:15:11;;;;;;;4.70;1.37;;;;;;;10.07;79.95;100552.00;4213226;28;20243;-67
2022/09/02 01:17:42;;;;;;;2.83;1.60;;;;;;;9.96;80.21;100554.78;4203797;28;26665;-67
2022/09/02 01:20:12;;;;;;;4.53;1.20;;;;;;;9.93;80.65;100547.91;4218363;28;20223;-66
2022/09/02 01:22:40;;;;;;;3.33;1.40;;;;;;;9.94;81.21;100559.38;4203271;28;20291;-65
2022/09/02 01:25:13;;;;;;;1.73;1.20;;;;;;;9.98;80.37;100550.16;4192718;28;21905;-67
2022/09/02 01:27:40;;;;;;;4.47;1.67;;;;;;;10.01;80.41;100560.50;4201496;28;25536;-66
2022/09/02 01:30:10;;;;;;;4.40;1.17;;;;;;;10.05;80.00;100551.28;4206482;28;20228;-64
2022/09/02 01:32:37;;;;;;;3.40;1.60;;;;;;;10.08;79.93;100551.00;4205894;28;20232;-65
2022/09/02 01:35:05;;;;;;;4.27;1.47;;;;;;;10.06;80.24;100546.78;4202229;28;20657;-68
2022/09/02 01:37:32;;;;;;;7.13;1.40;;;;;;;10.10;80.19;100558.84;4199584;28;20233;-65
2022/09/02 01:39:59;;;;;;;3.37;1.50;;;;;;;10.10;79.85;100553.53;4210761;28;22126;-65
2022/09/02 01:42:26;;;;;;;6.23;1.20;;;;;;;10.11;80.35;100553.41;4199305;28;22186;-65
2022/09/02 01:44:53;;;;;;;2.33;1.27;;;;;;;10.00;81.24;100552.69;4207344;28;20384;-66
2022/09/02 01:47:23;;;;;;;7.87;1.37;;;;;;;9.96;81.06;100551.28;4211198;28;21822;-68
2022/09/02 01:49:50;;;;;;;2.13;1.10;;;;;;;9.88;81.07;100550.16;4200670;28;20510;-65
2022/09/02 01:52:18;;;;;;;8.93;1.77;;;;;;;9.81;81.34;100543.72;4207449;28;20332;-66
2022/09/02 01:54:45;;;;;;;3.73;1.33;;;;;;;9.77;81.87;100546.78;4204291;28;21770;-67
2022/09/02 01:57:12;;;;;;;6.33;1.40;;;;;;;9.87;81.05;100547.63;4202724;28;20232;-67
2022/09/02 01:59:38;;;;;;;4.13;1.43;;;;;;;9.80;81.18;100551.81;4201067;28;21382;-66
2022/09/02 02:02:05;;;;;;;3.63;1.63;;;;;;;9.72;81.63;100545.34;4206505;28;23548;-67
2022/09/02 02:04:32;;;;;;;5.47;1.30;;;;;;;9.64;81.71;100547.84;4216110;28;22253;-67
2022/09/02 02:06:59;;;;;;;5.67;1.20;;;;;;;9.59;82.08;100544.75;4201077;28;21862;-65
2022/09/02 02:09:27;;;;;;;4.97;1.63;;;;;;;9.68;81.41;100551.09;4210752;28;20235;-69
2022/09/02 02:11:53;;;;;;;2.93;1.20;;;;;;;9.68;82.04;100559.06;4204110;28;20241;-66
2022/09/02 02:14:21;;;;;;;2.57;1.43;;;;;;;9.70;82.04;100557.94;4206608;28;20359;-67
2022/09/02 02:16:48;;;;;;;3.17;1.40;;;;;;;9.70;81.70;100557.09;4195346;28;20236;-66
2022/09/02 02:19:15;;;;;;;2.97;1.23;;;;;;;9.66;81.76;100561.84;4203021;28;20466;-68
2022/09/02 02:21:41;;;;;;;2.90;1.23;;;;;;;9.69;81.55;100561.59;4202460;28;24276;-66
2022/09/02 02:24:08;;;;;;;5.57;1.33;;;;;;;9.63;81.84;100551.50;4199396;28;23214;-66
2022/09/02 02:26:35;;;;;;;5.00;1.80;;;;;;;9.64;82.05;100547.84;4200600;28;22082;-67
2022/09/02 02:29:02;;;;;;;1.63;1.00;;;;;;;9.71;81.10;100556.94;4207909;28;20398;-67
2022/09/02 02:31:29;;;;;;;2.97;1.30;;;;;;;9.73;81.23;100557.66;4195357;28;20474;-67
2022/09/02 02:33:57;;;;;;;3.90;1.20;;;;;;;9.70;80.71;100547.31;4199590;28;21332;-65
2022/09/02 02:36:24;;;;;;;2.90;1.00;;;;;;;9.64;81.06;100552.31;4208617;28;20597;-64
2022/09/02 02:38:50;;;;;;;4.40;1.40;;;;;;;9.60;81.00;100546.47;4204878;28;21040;-66
2022/09/02 02:41:17;;;;;;;3.17;1.40;;;;;;;9.53;81.15;100545.31;4205928;28;20233;-66
2022/09/02 02:43:44;;;;;;;4.17;1.33;;;;;;;9.56;81.00;100550.34;4208092;28;20571;-65
2022/09/02 02:46:10;;;;;;;3.33;1.70;;;;;;;9.47;81.59;100551.16;4209716;28;22961;-65
2022/09/02 02:48:38;;;;;;;4.23;1.27;;;;;;;9.37;82.02;100550.31;4202068;28;22492;-66
2022/09/02 02:51:05;;;;;;;4.83;1.83;;;;;;;9.25;82.66;100552.22;4209651;28;22950;-74
2022/09/02 02:53:33;;;;;;;4.10;1.77;;;;;;;9.17;83.49;100555.50;4217434;28;20229;-73
2022/09/02 02:56:00;;;;;;;3.63;1.47;;;;;;;9.11;84.06;100553.41;4205781;28;23506;-73
2022/09/02 02:58:27;;;;;;;5.37;1.57;;;;;;;9.05;84.39;100553.94;4203397;28;20239;-71
2022/09/02 03:00:54;;;;;;;4.80;1.67;;;;;;;9.04;84.60;100550.44;4186449;28;20231;-71
2022/09/02 03:03:21;;;;;;;6.00;1.77;;;;;;;8.99;84.74;100546.47;4196422;28;20232;-74
2022/09/02 03:05:49;;;;;;;5.40;1.87;;;;;;;8.83;85.30;100547.81;4211800;28;20343;-75
2022/09/02 03:08:19;;;;;;;5.03;1.70;;;;;;;8.76;86.20;100546.66;4199113;28;20236;-72
2022/09/02 03:10:50;;;;;;;4.50;1.90;;;;;;;8.85;85.99;100545.88;4194852;28;20335;-71
2022/09/02 03:13:16;;;;;;;6.10;1.83;;;;;;;8.89;85.42;100543.78;4203357;28;20244;-78
2022/09/02 03:15:43;;;;;;;3.93;1.63;;;;;;;8.79;85.38;100549.03;4219288;28;20889;-75
2022/09/02 03:18:10;;;;;;;3.97;1.70;;;;;;;8.78;85.63;100546.50;4211022;28;20240;-71
2022/09/02 03:20:38;;;;;;;4.27;2.07;;;;;;;8.76;86.28;100549.31;4208669;28;20343;-72
2022/09/02 03:23:05;;;;;;;9.20;2.13;;;;;;;8.67;86.77;100547.44;4214335;28;22953;-76
2022/09/02 03:25:33;;;;;;;7.03;2.03;;;;;;;8.61;86.97;100553.25;4213611;28;22436;-75
2022/09/02 03:28:02;;;;;;;3.10;1.77;;;;;;;8.56;87.24;100560.75;4213759;28;22972;-76
2022/09/02 03:30:30;;;;;;;4.07;1.90;;;;;;;8.58;87.35;100559.66;4215844;28;20236;-72
2022/09/02 03:32:58;;;;;;;3.50;1.80;;;;;;;8.56;87.38;100560.75;4217489;28;20236;-77
2022/09/02 03:35:30;;;;;;;3.17;1.57;;;;;;;8.48;88.13;100563.22;4216624;28;20249;-74
2022/09/02 03:37:58;;;;;;;4.93;2.03;;;;;;;8.41;87.96;100561.06;4200162;28;20245;-76
2022/09/02 03:40:26;;;;;;;4.20;1.70;;;;;;;8.38;88.32;100563.09;4198059;28;20236;-72
2022/09/02 03:42:53;;;;;;;5.10;1.90;;;;;;;8.28;88.98;100562.19;4211259;28;20300;-71
2022/09/02 03:45:25;;;;;;;7.20;2.40;;;;;;;8.25;89.51;100569.41;4204077;28;21171;-74
2022/09/02 03:47:55;;;;;;;5.00;2.00;;;;;;;8.31;88.82;100570.75;4208731;28;20314;-77
2022/09/02 03:50:26;;;;;;;5.67;2.10;;;;;;;8.25;89.25;100571.22;4205696;28;20267;-75
2022/09/02 03:52:53;;;;;;;6.30;2.00;;;;;;;8.21;89.50;100572.44;4194869;28;20384;-76
2022/09/02 03:55:21;;;;;;;5.73;2.00;;;;;;;8.22;89.50;100571.50;4193291;28;25459;-72
2022/09/02 03:57:47;;;;;;;6.63;1.90;;;;;;;8.19;89.95;100582.34;4211014;28;20345;-71
2022/09/02 04:00:15;;;;;;;4.50;1.90;;;;;;;8.19;90.14;100582.34;4197626;28;21221;-73
2022/09/02 04:02:43;;;;;;;5.23;2.23;;;;;;;8.20;90.15;100582.22;4206414;28;20358;-71
2022/09/02 04:05:15;;;;;;;6.13;2.00;;;;;;;8.25;89.77;100589.78;4206272;28;20259;-75
2022/09/02 04:07:43;;;;;;;3.90;2.00;;;;;;;8.36;89.33;100589.75;4218270;28;20334;-74
2022/09/02 04:10:12;;;;;;;4.77;1.83;;;;;;;8.45;88.63;100590.81;4239355;28;20339;-75
2022/09/02 04:12:42;;;;;;;4.27;1.97;;;;;;;8.48;88.13;100581.78;4223279;28;20307;-76
2022/09/02 04:15:10;;;;;;;3.40;1.70;;;;;;;8.52;87.38;100593.81;4256339;28;23093;-73
2022/09/02 04:17:39;;;;;;;4.07;1.90;;;;;;;8.65;86.75;100591.81;4253687;28;20248;-73
2022/09/02 04:20:08;;;;;;;6.30;1.90;;;;;;;8.71;85.93;100596.63;4231889;28;21116;-72
2022/09/02 04:22:35;;;;;;;4.43;1.60;;;;;;;8.56;86.58;100597.88;4244926;28;20235;-77
2022/09/02 04:25:03;;;;;;;5.10;1.80;;;;;;;8.68;86.06;100596.03;4272917;28;20232;-73
2022/09/02 04:27:30;;;;;;;6.43;1.70;;;;;;;8.77;85.51;100605.84;4274076;28;20240;-81
2022/09/02 04:29:58;;;;;;;5.67;1.80;;;;;;;8.74;85.82;100601.66;4240289;28;20236;-79
2022/09/02 04:32:25;;;;;;;4.87;1.70;;;;;;;8.79;85.43;100598.63;4239963;28;20478;-75
2022/09/02 04:34:52;;;;;;;3.53;1.87;;;;;;;8.87;85.17;100601.44;4237391;28;20614;-72
2022/09/02 04:37:19;;;;;;;3.20;1.70;;;;;;;8.96;85.29;100605.13;4207189;28;20233;-79
2022/09/02 04:39:45;;;;;;;6.07;2.13;;;;;;;9.11;84.61;100609.16;4188916;28;20791;-75
2022/09/02 04:42:12;;;;;;;10.90;1.87;;;;;;;9.14;84.05;100603.56;4221233;28;22565;-75
2022/09/02 04:44:38;;;;;;;4.77;1.80;;;;;;;9.23;83.62;100609.91;4209004;28;20241;-74
2022/09/02 04:47:05;;;;;;;4.63;1.97;;;;;;;9.27;83.62;100604.22;4206464;28;25711;-69
2022/09/02 04:49:33;;;;;;;4.97;2.13;;;;;;;9.33;83.30;100609.97;4217565;28;20271;-72
2022/09/02 04:52:00;;;;;;;5.30;1.80;;;;;;;9.44;83.44;100604.56;4198541;28;20250;-76
2022/09/02 04:54:26;;;;;;;4.30;1.87;;;;;;;9.46;83.44;100608.75;4196562;28;20237;-79
2022/09/02 04:56:54;;;;;;;4.07;1.90;;;;;;;9.55;82.75;100601.78;4212687;28;20438;-75
2022/09/02 04:59:20;;;;;;;9.20;1.90;;;;;;;9.62;83.57;100605.63;4210126;28;20322;-73
2022/09/02 05:01:48;;;;;;;5.47;2.47;;;;;;;9.57;82.53;100605.16;4211572;28;20469;-71
2022/09/02 05:04:16;;;;;;;5.53;1.80;;;;;;;9.69;82.53;100613.88;4222752;28;20233;-71
2022/09/02 05:06:42;;;;;;;8.60;2.23;;;;;;;9.69;83.08;100604.09;4184385;28;20345;-71
2022/09/02 05:09:10;;;;;;;4.97;2.30;;;;;;;9.74;82.55;100603.69;4197465;28;20229;-71
2022/09/02 05:11:37;;;;;;;12.83;3.53;;;;;;;9.89;82.05;100612.13;4200806;28;20280;-72
2022/09/02 05:14:05;;;;;;;10.23;3.23;;;;;;;9.91;81.94;100612.81;4190224;28;22649;-75
2022/09/02 05:16:38;;;;;;;6.57;2.80;;;;;;;9.93;81.80;100621.50;4184124;28;20658;-69
2022/09/02 05:19:08;;;;;;;6.27;2.73;;;;;;;9.97;82.67;100614.09;4195454;28;25432;-75
2022/09/02 05:21:40;;;;;;;13.17;3.17;;;;;;;10.06;82.52;100614.09;4194364;28;20371;-69
2022/09/02 05:24:07;;;;;;;6.03;2.13;;;;;;;10.35;81.11;100610.69;4186464;28;20237;-77
2022/09/02 05:26:34;;;;;;;7.33;2.57;;;;;;;10.39;80.65;100614.72;4225182;28;20237;-71
2022/09/02 05:29:05;;;;;;;8.23;2.73;;;;;;;10.46;80.53;100618.50;4200518;28;20237;-73
2022/09/02 05:31:32;;;;;;;7.03;2.20;;;;;;;10.45;80.90;100616.00;4184448;28;21799;-73
2022/09/02 05:33:59;;;;;;;6.83;1.50;;;;;;;10.56;80.79;100619.38;4192080;28;20658;-74
2022/09/02 05:36:26;;;;;;;3.60;1.70;;;;;;;10.78;79.85;100622.72;4201662;28;21756;-71
2022/09/02 05:38:53;;;;;;;5.53;1.20;;;;;;;10.90;79.16;100615.41;4234278;28;20277;-73
2022/09/02 05:41:22;;;;;;;4.47;1.50;;;;;;;10.95;78.04;100621.97;4210680;28;20707;-72
2022/09/02 05:43:54;;;;;;;6.50;1.70;;;;;;;11.13;78.02;100618.59;4242753;28;20815;-74
2022/09/02 05:46:24;;;;;;;4.07;1.50;;;;;;;11.14;78.06;100620.25;4215690;28;20249;-74
2022/09/02 05:49:16;;;;;;;4.23;1.13;;;;;;;11.26;77.13;100621.78;4244970;28;20303;-75
2022/09/02 05:51:53;;;;;;;5.33;1.50;;;;;;;11.39;76.39;100627.63;4217526;28;20282;-70
2022/09/02 05:54:23;;;;;;;2.73;1.20;;;;;;;11.47;76.28;100623.38;4237097;28;20239;-75
2022/09/02 05:56:53;;;;;;;4.67;1.10;;;;;;;11.58;75.73;100626.69;4226756;28;20297;-69
2022/09/02 05:59:21;;;;;;;3.07;1.23;;;;;;;11.69;75.07;100625.69;4220844;28;21165;-70
2022/09/02 06:01:48;;;;;;;6.40;1.50;;;;;;;11.79;75.20;100622.97;4198580;28;21350;-73
2022/09/02 06:04:15;;;;;;;6.30;1.60;;;;;;;11.90;75.10;100622.81;4207311;28;21734;-72
2022/09/02 06:06:42;;;;;;;5.80;1.23;;;;;;;12.02;73.79;100618.09;4207983;28;21627;-72
2022/09/02 06:09:10;;;;;;;6.17;1.73;;;;;;;12.04;74.04;100626.78;4209371;28;20521;-71
2022/09/02 06:11:39;;;;;;;3.53;1.60;;;;;;;12.21;73.60;100625.97;4211733;28;22366;-72
2022/09/02 06:14:07;;;;;;;5.73;1.40;;;;;;;12.30;74.25;100626.91;4241428;28;20824;-77
2022/09/02 06:16:34;;;;;;;7.23;1.73;;;;;;;12.47;71.85;100630.56;4220529;28;20233;-74
2022/09/02 06:19:02;;;;;;;4.53;1.37;;;;;;;12.38;71.75;100624.28;4221835;28;20302;-66
2022/09/02 06:21:30;;;;;;;4.10;1.60;;;;;;;12.57;70.88;100628.66;4217211;28;20935;-63
2022/09/02 06:23:58;;;;;;;3.90;1.70;;;;;;;12.70;70.69;100640.78;4218098;28;20331;-64
2022/09/02 06:26:25;;;;;;;5.13;1.60;;;;;;;12.78;70.41;100647.03;4220249;28;20268;-64
2022/09/02 06:28:52;;;;;;;5.70;1.33;;;;;;;12.96;70.45;100644.31;4211372;28;23208;-66
2022/09/02 06:31:21;;;;;;;5.87;1.27;;;;;;;13.13;69.17;100647.94;4238193;28;20231;-65
2022/09/02 06:33:50;;;;;;;5.27;1.60;;;;;;;13.24;68.49;100647.69;4215163;28;20279;-65
2022/09/02 06:36:18;;;;;;;4.37;2.10;;;;;;;13.41;68.03;100647.84;4209976;28;20568;-64
2022/09/02 06:38:47;;;;;;;6.97;1.37;;;;;;;13.51;67.65;100643.22;4204383;28;20366;-66
2022/09/02 06:41:17;;;;;;;3.77;1.27;;;;;;;13.58;66.34;100648.75;4216847;28;20682;-64
2022/09/02 06:43:44;;;;;;;2.90;1.10;;;;;;;13.78;64.82;100655.53;4213821;28;20233;-63
2022/09/02 06:46:16;;;;;;;5.77;1.43;;;;;;;13.87;64.67;100657.25;4240946;28;20303;-63
2022/09/02 06:48:43;;;;;;;4.30;1.10;;;;;;;14.07;63.46;100659.66;4239356;28;22264;-62
2022/09/02 06:51:30;;;;;;;4.30;1.47;;;;;;;14.42;62.85;100663.97;4232931;28;20600;-63
2022/09/02 06:53:58;;;;;;;5.53;1.20;;;;;;;16.04;56.86;100674.69;4280192;28;20251;-61
2022/09/02 06:56:26;;;;;;;3.23;1.40;;;;;;;19.30;46.07;100704.69;4249846;28;20600;-63
2022/09/02 06:58:53;;;;;;;2.83;1.10;;;;;;;22.41;38.43;100715.47;4277147;28;20889;-73
2022/09/02 07:01:23;;;;;;;5.27;1.50;;;;;;;24.01;33.74;100720.47;4289244;28;20236;-70
2022/09/02 07:06:38;;;;;;;6.50;1.10;;;;;;;25.60;28.75;100722.78;4270053;28;20246;-73
2022/09/02 07:09:07;;;;;;;3.80;1.03;;;;;;;26.10;28.18;100726.88;4215143;28;21598;-71
2022/09/02 07:11:34;;;;;;;4.07;1.20;;;;;;;26.18;27.83;100733.91;4250034;28;22433;-69
2022/09/02 07:14:01;;;;;;;3.63;1.20;;;;;;;28.22;25.52;100741.16;4210328;28;20336;-68
2022/09/02 07:16:30;;;;;;;8.40;1.17;;;;;;;30.25;23.21;100745.88;4233427;28;21432;-70
2022/09/02 07:19:00;;;;;;;8.73;1.20;;;;;;;31.08;21.67;100754.09;4226274;28;20240;-72
2022/09/02 07:21:28;;;;;;;3.43;1.03;;;;;;;30.08;22.18;100740.59;4239727;28;20242;-70
2022/09/02 07:24:00;;;;;;;6.40;1.30;;;;;;;30.12;22.15;100744.47;4234844;28;20241;-73
2022/09/02 07:26:27;;;;;;;13.43;1.77;;;;;;;30.46;21.41;100746.78;4208169;28;20236;-68
2022/09/02 07:28:55;;;;;;;4.83;1.33;;;;;;;30.76;20.65;100745.22;4220432;28;21309;-72
2022/09/02 07:31:23;;;;;;;6.23;1.23;;;;;;;31.05;20.55;100749.16;4225030;28;20232;-72
2022/09/02 07:33:50;;;;;;;4.35;0.93;;;;;;;31.39;19.81;100754.06;4211615;28;21847;-71
2022/09/02 07:36:20;;;;;;;13.48;1.60;;;;;;;31.68;19.72;100750.75;4228046;28;20855;-69
2022/09/02 07:38:47;;;;;;;3.63;1.10;;;;;;;32.75;19.13;100753.09;4217754;28;20349;-70
2022/09/02 07:41:14;;;;;;;3.85;1.10;;;;;;;33.19;17.43;100757.78;4220961;28;21056;-69
2022/09/02 07:43:41;;;;;;;2.83;1.20;;;;;;;32.93;17.80;100753.53;4207663;28;20401;-63
2022/09/02 07:46:07;;;;;;;4.20;1.10;;;;;;;33.59;16.78;100766.81;4217395;28;20237;-64
2022/09/02 07:48:34;;;;;;;4.45;1.25;;;;;;;35.11;15.47;100769.06;4218731;28;21205;-64
2022/09/02 07:51:01;;;;;;;3.20;0.90;;;;;;;34.84;15.26;100763.09;4210003;28;20641;-65
2022/09/02 07:53:28;;;;;;;4.90;1.10;;;;;;;34.71;15.54;100758.31;4218559;28;20241;-64
2022/09/02 07:55:55;;;;;;;5.28;0.73;;;;;;;34.62;15.09;100765.63;4205804;28;20241;-65
2022/09/02 07:58:23;;;;;;;3.38;1.15;;;;;;;34.10;16.15;100753.59;4212791;28;25036;-65
2022/09/02 08:00:50;;;;;;;3.70;0.90;;;;;;;34.55;15.73;100749.38;4242660;28;20233;-64
2022/09/02 08:03:17;;;;;;;1.63;0.80;;;;;;;35.14;14.66;100769.28;4262107;28;20418;-64
2022/09/02 08:05:45;;;;;;;2.83;0.80;;;;;;;34.70;15.05;100766.88;4245145;28;20302;-64
2022/09/02 08:08:18;;;;;;;3.47;0.90;;;;;;;32.65;15.88;100746.84;4194864;28;20242;-65
2022/09/02 08:10:47;;;;;;;3.40;0.80;;;;;;;31.30;17.16;100741.97;4225927;28;20229;-67
2022/09/02 08:13:15;;;;;;;5.88;0.88;;;;;;;29.76;19.36;100722.34;4399808;28;20244;-64
2022/09/02 08:15:42;;;;;;;6.82;0.80;;;;;;;28.43;20.48;100712.94;4239178;28;20279;-65
2022/09/02 08:18:09;;;;;;;6.10;1.33;;;;;;;26.91;22.35;100711.28;4220110;28;20278;-64
2022/09/02 08:20:47;;;;;;;3.60;1.83;;;;;;;25.24;24.40;100691.97;4216729;28;20225;-65
2022/09/02 08:23:14;;;;;;;1.70;0.80;;;;;;;24.67;25.65;100690.78;4215600;28;20236;-65
2022/09/02 08:26:01;;;;;;;3.30;0.80;;;;;;;24.14;26.32;100684.97;4232591;28;20241;-67
2022/09/02 08:28:30;;;;;;;2.90;0.80;;;;;;;23.70;26.49;100684.19;4202340;28;20266;-67
2022/09/02 08:30:58;;;;;;;4.20;0.70;;;;;;;23.26;28.26;100679.84;4215866;28;20296;-63
2022/09/02 08:33:25;;;;;;;6.33;0.93;;;;;;;22.79;29.39;100674.75;4219931;28;20375;-65
2022/09/02 08:35:52;;;;;;;1.30;0.67;;;;;;;22.93;29.21;100679.03;4201041;28;21031;-65
2022/09/02 08:38:20;;;;;;;3.07;0.70;;;;;;;22.68;28.00;100681.69;4210636;28;20808;-65
2022/09/02 08:40:48;;;;;;;1.57;0.80;;;;;;;22.63;28.53;100667.97;4187451;28;20398;-65
2022/09/02 08:43:28;;;;;;;5.47;0.83;;;;;;;21.79;29.37;100672.50;4213493;28;20680;-65
2022/09/02 08:45:57;;;;;;;1.00;0.50;;;;;;;21.31;28.86;100675.50;4198039;28;20257;-64
2022/09/02 08:48:44;;;;;;;3.43;0.63;;;;;;;20.74;29.40;100671.53;4185770;28;20244;-65
2022/09/02 08:51:28;;;;;;;1.43;0.50;;;;;;;20.94;29.68;100666.16;4204077;28;20252;-64
2022/09/02 08:54:18;;;;;;;3.40;0.50;;;;;;;21.03;29.44;100662.19;4198332;28;20237;-64
2022/09/02 08:56:44;;;;;;;2.83;0.60;;;;;;;20.55;31.12;100654.19;4178758;28;20598;-64
2022/09/02 08:59:13;;;;;;;4.77;0.60;;;;;;;20.74;30.31;100661.53;4192650;28;20299;-62
2022/09/02 09:01:45;;;;;;;1.57;0.50;;;;;;;20.76;29.46;100658.63;4207186;28;20419;-64
2022/09/02 09:04:17;;;;;;;8.57;0.67;;;;;;;20.20;29.72;100655.13;4201227;28;22086;-64
2022/09/02 09:07:06;;;;;;;1.63;0.50;;;;;;;19.88;31.68;100658.53;4196146;28;20233;-66
2022/09/02 09:09:48;;;;;;;1.90;0.53;;;;;;;20.01;31.48;100651.34;4211793;28;20230;-46
2022/09/02 09:12:33;;;;;;;1.73;0.60;;;;;;;20.12;30.23;100651.81;4190105;28;20781;-48
2022/09/02 09:15:08;;;;;;;4.67;0.70;;;;;;;19.65;31.86;100646.16;4179947;28;20271;-47
2022/09/02 09:17:52;;;;;;;1.23;0.57;;;;;;;19.93;32.25;100642.59;4193056;28;20232;-49
2022/09/02 09:20:22;;;;;;;2.90;0.50;;;;;;;20.14;31.59;100639.75;4181537;28;21242;-45
2022/09/02 09:22:50;;;;;;;4.93;0.70;;;;;;;19.77;32.03;100641.06;4172264;28;20817;-44
2022/09/02 09:25:17;;;;;;;4.37;0.60;;;;;;;19.31;33.68;100637.00;4179635;28;20275;-52
2022/09/02 09:27:44;;;;;;;3.93;0.50;;;;;;;19.15;33.75;100642.69;4197081;28;20241;-44
2022/09/02 09:30:12;;;;;;;6.27;0.70;;;;;;;19.14;33.99;100636.47;4190131;28;20625;-44
2022/09/02 09:32:53;;;;;;;0.93;0.43;;;;;;;18.99;32.71;100630.38;4192419;28;20277;-45
2022/09/02 09:35:20;;;;;;;1.23;0.60;;;;;;;19.21;32.54;100630.31;4176782;28;20241;-51
2022/09/02 09:37:49;;;;;;;2.20;0.50;;;;;;;18.93;33.55;100626.56;4182939;28;21674;-47
2022/09/02 09:40:21;;;;;;;6.27;0.73;;;;;;;19.01;33.87;100633.72;4198152;28;22929;-47
2022/09/02 09:43:11;;;;;;;2.60;0.70;;;;;;;19.12;32.65;100632.31;4194696;28;20495;-48
2022/09/02 09:45:50;;;;;;;4.27;0.70;;;;;;;19.21;33.27;100627.63;4176662;28;20237;-65
2022/09/02 09:48:28;;;;;;;4.63;0.60;;;;;;;18.95;33.04;100627.22;4208164;28;20519;-62
2022/09/02 09:50:55;;;;;;;4.60;0.90;;;;;;;18.80;33.85;100625.63;4190042;28;24190;-62
2022/09/02 09:53:26;;;;;;;5.63;0.80;;;;;;;18.76;34.69;100627.84;4182711;28;20728;-65
2022/09/02 09:55:55;;;;;;;2.03;0.60;;;;;;;19.01;34.86;100627.44;4183104;28;21778;-64
2022/09/02 09:58:27;;;;;;;1.30;0.50;;;;;;;19.30;33.31;100621.88;4206145;28;20248;-67
2022/09/02 10:00:55;;;;;;;3.33;0.80;;;;;;;19.36;32.19;100625.63;4186347;28;20305;-69
2022/09/02 10:03:25;;;;;;;4.43;1.03;;;;;;;19.20;33.26;100618.69;4193341;28;20366;-71
2022/09/02 10:06:16;;;;;;;1.07;0.50;;;;;;;19.07;31.75;100615.88;4190017;28;20300;-68
2022/09/02 10:08:55;;;;;;;4.90;0.40;;;;;;;19.01;30.94;100619.38;4212637;28;20764;-69
2022/09/02 10:11:29;;;;;;;3.83;0.43;;;;;;;18.76;30.64;100615.22;4234855;28;20325;-69
2022/09/02 10:14:08;;;;;;;2.33;0.53;;;;;;;18.55;31.08;100607.13;4191704;28;21068;-69
2022/09/02 10:17:05;;;;;;;3.30;0.60;;;;;;;18.68;31.89;100611.78;4170664;28;22911;-75
2022/09/02 10:20:11;;;;;;;0.90;0.40;;;;;;;18.74;32.52;100600.25;4197237;28;20234;-75
2022/09/02 10:22:47;;;;;;;5.70;0.97;;;;;;;18.69;34.05;100602.69;4169461;28;27403;-73
2022/09/02 10:25:37;;;;;;;1.37;0.60;;;;;;;18.69;33.63;100602.69;4211212;28;22002;-72
2022/09/02 10:28:25;;;;;;;1.27;0.43;;;;;;;18.53;32.96;100610.00;4196786;29;21152;-74
2022/09/02 10:31:22;;;;;;;6.43;0.90;;;;;;;18.46;34.07;100597.50;4203993;28;20593;-70
2022/09/02 10:34:10;;;;;;;1.73;0.67;;;;;;;18.50;34.59;100599.63;4179011;28;20472;-74
2022/09/02 10:37:00;;;;;;;8.93;1.00;;;;;;;18.67;32.92;100596.66;4189903;28;20233;-69
2022/09/02 10:39:57;;;;;;;2.63;0.80;;;;;;;18.86;33.83;100596.03;4191716;28;21104;-74
2022/09/02 10:43:00;;;;;;;6.00;1.30;;;;;;;19.22;33.09;100602.28;4207052;28;20403;-73
2022/09/02 10:45:43;;;;;;;6.57;0.60;;;;;;;19.17;32.46;100600.19;4223092;28;22320;-71
2022/09/02 10:48:35;;;;;;;2.37;0.70;;;;;;;19.23;32.31;100594.00;4213763;28;20237;-71
2022/09/02 10:51:06;;;;;;;1.10;0.43;;;;;;;19.11;31.83;100599.13;4205681;28;20843;-74
2022/09/02 10:53:42;;;;;;;1.63;0.47;;;;;;;18.99;31.76;100600.69;4200015;28;20379;-73
2022/09/02 10:56:26;;;;;;;3.00;0.60;;;;;;;19.21;32.10;100596.06;4189279;28;20233;-70
2022/09/02 10:59:04;;;;;;;2.17;0.60;;;;;;;19.26;30.63;100599.00;4217152;28;20244;-70
2022/09/02 11:01:40;;;;;;;3.03;0.70;;;;;;;19.37;31.10;100594.91;4193118;28;23391;-70
2022/09/02 11:04:12;;;;;;;1.77;0.50;;;;;;;19.47;30.50;100605.34;4208721;28;20235;-69
2022/09/02 11:06:41;;;;;;;2.20;0.50;;;;;;;19.58;31.30;100588.59;4188506;28;21451;-73
2022/09/02 11:09:40;;;;;;;1.53;0.60;;;;;;;19.54;30.06;100592.72;4213539;28;21081;-71
2022/09/02 11:12:11;;;;;;;6.70;0.50;;;;;;;19.57;30.20;100597.72;4208448;28;20262;-68
2022/09/02 11:15:05;;;;;;;3.23;0.60;;;;;;;19.28;29.59;100596.94;4196766;28;20232;-72
2022/09/02 11:17:32;;;;;;;4.93;0.53;;;;;;;19.11;29.44;100599.13;4214261;28;21127;-72
2022/09/02 11:20:06;;;;;;;5.27;0.60;;;;;;;19.04;29.89;100592.84;4202044;28;20323;-74
2022/09/02 11:22:41;;;;;;;5.13;0.80;;;;;;;19.23;30.67;100594.00;4197272;28;22998;-71
2022/09/02 11:25:17;;;;;;;2.13;0.30;;;;;;;19.47;29.44;100589.16;4193817;28;21169;-72
2022/09/02 11:27:58;;;;;;;3.07;0.50;;;;;;;19.54;30.48;100590.03;4177172;28;20243;-74
2022/09/02 11:30:51;;;;;;;3.57;0.60;;;;;;;19.53;30.86;100588.38;4202159;28;20234;-74
2022/09/02 11:33:20;;;;;;;2.63;0.50;;;;;;;19.52;30.05;100586.69;4238567;28;20280;-73
2022/09/02 11:35:49;;;;;;;4.27;0.70;;;;;;;19.47;30.02;100587.28;4240691;28;20309;-70
2022/09/02 11:38:53;;;;;;;2.37;0.50;;;;;;;19.57;30.17;100579.69;4221339;28;20513;-72
2022/09/02 11:41:43;;;;;;;1.23;0.50;;;;;;;19.54;30.47;100579.22;4180429;28;20234;-73
2022/09/02 11:44:22;;;;;;;1.87;1.00;;;;;;;19.76;30.48;100570.03;4211946;28;22264;-76
2022/09/02 11:47:19;;;;;;;1.37;0.50;;;;;;;19.70;29.50;100565.41;4206728;28;20260;-73